Taranto — V2AK2 — position and weather

sailwx.info

Track history (hours):
 
Tides and Currents Weather Stations Pressure Air Temp Water Temp Dewpoint Dewpoint Depression Visibility Wind Speed Wind Dir Waves Ship Positions

Taranto

Last reported at 2015-Mar-04 20:04 UTC. Time now 2015-Mar-05 08:10 UTC.
Position N 49°35' W 000°11'.

Length 88 m; draft 3.3 m.

Type: Cargo ship. MMSI: 304010614.

Date/timePositionNaut miles runAvg speedWind from/ knotsBaromVisibWave heightAir tempDewpointWater temp
2015-Mar-04 20:04N 49°35' W 000°11'5 9.9
2015-Mar-04 19:33N 49°30' W 000°13'9 9.2
2015-Mar-04 18:33N 49°21' W 000°14'5 4.5
2015-Mar-04 17:33N 49°17' W 000°15'6 0.2
2015-Mar-03 07:28N 49°12' W 000°19'5 0.4
2015-Mar-02 20:12N 49°16' W 000°15'2 2.0
2015-Mar-02 19:25N 49°17' W 000°15'7 8.6
2015-Mar-02 18:33N 49°25' W 000°13'9 8.8
2015-Mar-02 17:33N 49°33' W 000°12'30527.4
2015-Mar-02 06:26N 54°36' W 001°09'23229.4
2015-Mar-01 22:33N 51°05' E 001°28'5 5.4
2015-Mar-01 21:33N 51°08' E 001°34'5 5.4
2015-Mar-01 20:33N 51°13' E 001°39'6 6.2
2015-Mar-01 19:33N 51°19' E 001°42'8 8.4
2015-Mar-01 18:33N 51°27' E 001°44'1010.5
2015-Mar-01 17:33N 51°37' E 001°45'1010.5
2015-Mar-01 16:33N 51°48' E 001°44'1010.0
2015-Mar-01 15:34N 51°58' E 001°46'9 9.4
2015-Mar-01 14:33N 52°07' E 001°48'18 8.3
2015-Mar-01 12:23N 52°25' E 001°54'6 7.4
2015-Mar-01 11:33N 52°31' E 001°55'7 7.2
2015-Mar-01 10:33N 52°38' E 001°56'17 7.6
2015-Mar-01 08:18N 52°52' E 001°38'7 9.9
2015-Mar-01 07:33N 52°56' E 001°28'10 9.9
2015-Mar-01 06:32N 53°00' E 001°13'55 8.7
2015-Mar-01 00:16N 53°47' E 000°25'6 8.1
2015-Feb-28 23:33N 53°52' E 000°20'8 7.9
2015-Feb-28 22:33N 53°59' E 000°14'9 7.7
2015-Feb-28 21:24N 54°06' E 000°06'7 7.8
2015-Feb-28 20:33N 54°12' W 000°01'8 8.3
2015-Feb-28 19:33N 54°18' W 000°09'8 8.4
2015-Feb-28 18:33N 54°25' W 000°19'9 8.6
2015-Feb-28 17:33N 54°31' W 000°29'9 9.3
2015-Feb-28 16:33N 54°35' W 000°43'1010.1
2015-Feb-28 15:32N 54°39' W 000°59'7 3.2
2015-Feb-28 13:27N 54°36' W 001°09'0 0.0
2015-Feb-28 12:24N 54°36' W 001°09'0 0.0
2015-Feb-28 11:24N 54°36' W 001°09'0 0.0
2015-Feb-28 10:27N 54°36' W 001°09'0 0.0
2015-Feb-28 09:24N 54°36' W 001°09'0 0.0
2015-Feb-28 08:30N 54°36' W 001°09'0 0.0
2015-Feb-27 16:30N 54°36' W 001°09'0 0.0
2015-Feb-27 15:22N 54°36' W 001°09'4 5.0
2015-Feb-27 14:33N 54°40' W 001°07'2 1.7
2015-Feb-27 13:27N 54°40' W 001°03'2 2.6
2015-Feb-27 12:33N 54°42' W 001°05'1010.3
2015-Feb-27 11:33N 54°50' W 001°17'2 0.5
2015-Feb-27 08:13N 54°50' W 001°20'0 0.0
2015-Feb-27 07:19N 54°50' W 001°20'0 0.0
2015-Feb-26 16:19N 54°50' W 001°20'0 0.0
2015-Feb-26 15:07N 54°50' W 001°20'0 0.0
2015-Feb-26 14:22N 54°50' W 001°20'0 0.0
2015-Feb-26 13:25N 54°50' W 001°20'0 0.0
2015-Feb-26 12:07N 54°50' W 001°20'0 0.0
2015-Feb-26 10:28N 54°50' W 001°20'0 0.0
2015-Feb-26 09:25N 54°50' W 001°20'0 0.0
2015-Feb-26 08:28N 54°50' W 001°20'13 1.5
2015-Feb-25 23:32N 54°43' W 001°01'9 9.4
2015-Feb-25 22:33N 54°37' W 000°48'9 8.8
2015-Feb-25 21:33N 54°32' W 000°35'9 8.6
2015-Feb-25 20:34N 54°26' W 000°25'9 8.9
2015-Feb-25 19:34N 54°19' W 000°15'9 9.2
2015-Feb-25 18:34N 54°12' W 000°06'9 9.4
2015-Feb-25 17:34N 54°04' E 000°03'1010.2
2015-Feb-25 16:33N 53°55' E 000°12'1110.7
2015-Feb-25 15:33N 53°46' E 000°20'55 9.1
2015-Feb-25 09:31N 53°01' E 001°13'9 9.1
2015-Feb-25 08:34N 52°57' E 001°25'1111.1
2015-Feb-25 07:34N 52°51' E 001°41'1211.6
2015-Feb-25 06:30N 52°43' E 001°57'1111.9
2015-Feb-25 05:34N 52°33' E 002°04'85 8.5
2015-Feb-24 19:34N 51°28' E 003°31'1110.6
2015-Feb-24 18:33N 51°22' E 003°45'3 3.2
2015-Feb-24 17:33N 51°20' E 003°49'6 5.9
2015-Feb-24 16:33N 51°14' E 003°49'4 1.0
2015-Feb-24 13:10N 51°11' E 003°48'0 0.0
2015-Feb-24 12:07N 51°11' E 003°48'0 0.0
2015-Feb-24 11:28N 51°11' E 003°48'0 0.0
2015-Feb-24 10:22N 51°11' E 003°48'0 0.0
2015-Feb-24 06:16N 51°11' E 003°48'0 0.0
2015-Feb-24 05:10N 51°11' E 003°48'0 0.0
2015-Feb-24 01:04N 51°11' E 003°48'0 0.0
2015-Feb-24 00:16N 51°11' E 003°48'0 0.0
2015-Feb-23 20:10N 51°11' E 003°48'0 0.0
2015-Feb-23 19:23N 51°11' E 003°48'0 0.0
2015-Feb-23 17:31N 51°11' E 003°48'0 0.0
2015-Feb-23 15:28N 51°11' E 003°48'0 0.0
2015-Feb-23 14:13N 51°11' E 003°48'0 0.0
2015-Feb-23 13:28N 51°11' E 003°48'0 0.0
2015-Feb-23 12:10N 51°11' E 003°48'0 0.0
2015-Feb-23 11:27N 51°11' E 003°48'1 1.2
2015-Feb-23 10:26N 51°09' E 003°47'0 0.0
2015-Feb-23 09:29N 51°09' E 003°47'0 0.0
2015-Feb-23 08:32N 51°09' E 003°47'0 0.0
2015-Feb-23 07:32N 51°09' E 003°47'0 0.0
2015-Feb-23 06:29N 51°09' E 003°47'0 0.0
2015-Feb-23 05:32N 51°09' E 003°47'0 0.0
2015-Feb-23 04:32N 51°09' E 003°47'0 0.0
2015-Feb-23 03:23N 51°09' E 003°47'0 0.0
2015-Feb-23 02:23N 51°09' E 003°47'0 0.0
2015-Feb-23 01:26N 51°09' E 003°47'0 0.0
2015-Feb-23 00:32N 51°09' E 003°47'0 0.0
2015-Feb-22 23:32N 51°09' E 003°47'0 0.0
2015-Feb-22 22:20N 51°09' E 003°47'0 0.0
2015-Feb-22 21:29N 51°09' E 003°47'0 0.0
2015-Feb-22 20:32N 51°09' E 003°47'  
Track history (hours):
 
Tides and Currents Weather Stations Pressure Air Temp Water Temp Dewpoint Dewpoint Depression Visibility Wind Speed Wind Dir Waves Ship Positions

Taranto

Last reported at 2015-Mar-04 20:04 UTC. Time now 2015-Mar-05 08:10 UTC.
Position N 49°35' W 000°11'.

Length 88 m; draft 3.3 m.

Type: Cargo ship. MMSI: 304010614.

Date/timePositionNaut miles runAvg speedWind from/ knotsBaromVisibWave heightAir tempDewpointWater temp
2015-Mar-04 20:04N 49°35' W 000°11'5 9.9
2015-Mar-04 19:33N 49°30' W 000°13'9 9.2
2015-Mar-04 18:33N 49°21' W 000°14'5 4.5
2015-Mar-04 17:33N 49°17' W 000°15'6 0.2
2015-Mar-03 07:28N 49°12' W 000°19'5 0.4
2015-Mar-02 20:12N 49°16' W 000°15'2 2.0
2015-Mar-02 19:25N 49°17' W 000°15'7 8.6
2015-Mar-02 18:33N 49°25' W 000°13'9 8.8
2015-Mar-02 17:33N 49°33' W 000°12'30527.4
2015-Mar-02 06:26N 54°36' W 001°09'23229.4
2015-Mar-01 22:33N 51°05' E 001°28'5 5.4
2015-Mar-01 21:33N 51°08' E 001°34'5 5.4
2015-Mar-01 20:33N 51°13' E 001°39'6 6.2
2015-Mar-01 19:33N 51°19' E 001°42'8 8.4
2015-Mar-01 18:33N 51°27' E 001°44'1010.5
2015-Mar-01 17:33N 51°37' E 001°45'1010.5
2015-Mar-01 16:33N 51°48' E 001°44'1010.0
2015-Mar-01 15:34N 51°58' E 001°46'9 9.4
2015-Mar-01 14:33N 52°07' E 001°48'18 8.3
2015-Mar-01 12:23N 52°25' E 001°54'6 7.4
2015-Mar-01 11:33N 52°31' E 001°55'7 7.2
2015-Mar-01 10:33N 52°38' E 001°56'17 7.6
2015-Mar-01 08:18N 52°52' E 001°38'7 9.9
2015-Mar-01 07:33N 52°56' E 001°28'10 9.9
2015-Mar-01 06:32N 53°00' E 001°13'55 8.7
2015-Mar-01 00:16N 53°47' E 000°25'6 8.1
2015-Feb-28 23:33N 53°52' E 000°20'8 7.9
2015-Feb-28 22:33N 53°59' E 000°14'9 7.7
2015-Feb-28 21:24N 54°06' E 000°06'7 7.8
2015-Feb-28 20:33N 54°12' W 000°01'8 8.3
2015-Feb-28 19:33N 54°18' W 000°09'8 8.4
2015-Feb-28 18:33N 54°25' W 000°19'9 8.6
2015-Feb-28 17:33N 54°31' W 000°29'9 9.3
2015-Feb-28 16:33N 54°35' W 000°43'1010.1
2015-Feb-28 15:32N 54°39' W 000°59'7 3.2
2015-Feb-28 13:27N 54°36' W 001°09'0 0.0
2015-Feb-28 12:24N 54°36' W 001°09'0 0.0
2015-Feb-28 11:24N 54°36' W 001°09'0 0.0
2015-Feb-28 10:27N 54°36' W 001°09'0 0.0
2015-Feb-28 09:24N 54°36' W 001°09'0 0.0
2015-Feb-28 08:30N 54°36' W 001°09'0 0.0
2015-Feb-27 16:30N 54°36' W 001°09'0 0.0
2015-Feb-27 15:22N 54°36' W 001°09'4 5.0
2015-Feb-27 14:33N 54°40' W 001°07'2 1.7
2015-Feb-27 13:27N 54°40' W 001°03'2 2.6
2015-Feb-27 12:33N 54°42' W 001°05'1010.3
2015-Feb-27 11:33N 54°50' W 001°17'2 0.5
2015-Feb-27 08:13N 54°50' W 001°20'0 0.0
2015-Feb-27 07:19N 54°50' W 001°20'0 0.0
2015-Feb-26 16:19N 54°50' W 001°20'0 0.0
2015-Feb-26 15:07N 54°50' W 001°20'0 0.0
2015-Feb-26 14:22N 54°50' W 001°20'0 0.0
2015-Feb-26 13:25N 54°50' W 001°20'0 0.0
2015-Feb-26 12:07N 54°50' W 001°20'0 0.0
2015-Feb-26 10:28N 54°50' W 001°20'0 0.0
2015-Feb-26 09:25N 54°50' W 001°20'0 0.0
2015-Feb-26 08:28N 54°50' W 001°20'13 1.5
2015-Feb-25 23:32N 54°43' W 001°01'9 9.4
2015-Feb-25 22:33N 54°37' W 000°48'9 8.8
2015-Feb-25 21:33N 54°32' W 000°35'9 8.6
2015-Feb-25 20:34N 54°26' W 000°25'9 8.9
2015-Feb-25 19:34N 54°19' W 000°15'9 9.2
2015-Feb-25 18:34N 54°12' W 000°06'9 9.4
2015-Feb-25 17:34N 54°04' E 000°03'1010.2
2015-Feb-25 16:33N 53°55' E 000°12'1110.7
2015-Feb-25 15:33N 53°46' E 000°20'55 9.1
2015-Feb-25 09:31N 53°01' E 001°13'9 9.1
2015-Feb-25 08:34N 52°57' E 001°25'1111.1
2015-Feb-25 07:34N 52°51' E 001°41'1211.6
2015-Feb-25 06:30N 52°43' E 001°57'1111.9
2015-Feb-25 05:34N 52°33' E 002°04'85 8.5
2015-Feb-24 19:34N 51°28' E 003°31'1110.6
2015-Feb-24 18:33N 51°22' E 003°45'3 3.2
2015-Feb-24 17:33N 51°20' E 003°49'6 5.9
2015-Feb-24 16:33N 51°14' E 003°49'4 1.0
2015-Feb-24 13:10N 51°11' E 003°48'0 0.0
2015-Feb-24 12:07N 51°11' E 003°48'0 0.0
2015-Feb-24 11:28N 51°11' E 003°48'0 0.0
2015-Feb-24 10:22N 51°11' E 003°48'0 0.0
2015-Feb-24 06:16N 51°11' E 003°48'0 0.0
2015-Feb-24 05:10N 51°11' E 003°48'0 0.0
2015-Feb-24 01:04N 51°11' E 003°48'0 0.0
2015-Feb-24 00:16N 51°11' E 003°48'0 0.0
2015-Feb-23 20:10N 51°11' E 003°48'0 0.0
2015-Feb-23 19:23N 51°11' E 003°48'0 0.0
2015-Feb-23 17:31N 51°11' E 003°48'0 0.0
2015-Feb-23 15:28N 51°11' E 003°48'0 0.0
2015-Feb-23 14:13N 51°11' E 003°48'0 0.0
2015-Feb-23 13:28N 51°11' E 003°48'0 0.0
2015-Feb-23 12:10N 51°11' E 003°48'0 0.0
2015-Feb-23 11:27N 51°11' E 003°48'1 1.2
2015-Feb-23 10:26N 51°09' E 003°47'0 0.0
2015-Feb-23 09:29N 51°09' E 003°47'0 0.0
2015-Feb-23 08:32N 51°09' E 003°47'0 0.0
2015-Feb-23 07:32N 51°09' E 003°47'0 0.0
2015-Feb-23 06:29N 51°09' E 003°47'0 0.0
2015-Feb-23 05:32N 51°09' E 003°47'0 0.0
2015-Feb-23 04:32N 51°09' E 003°47'0 0.0
2015-Feb-23 03:23N 51°09' E 003°47'0 0.0
2015-Feb-23 02:23N 51°09' E 003°47'0 0.0
2015-Feb-23 01:26N 51°09' E 003°47'0 0.0
2015-Feb-23 00:32N 51°09' E 003°47'0 0.0
2015-Feb-22 23:32N 51°09' E 003°47'0 0.0
2015-Feb-22 22:20N 51°09' E 003°47'0 0.0
2015-Feb-22 21:29N 51°09' E 003°47'0 0.0
2015-Feb-22 20:32N 51°09' E 003°47'  

Dump ship's entire track history